sensor_id;sensor_type;location;lat;lon;timestamp;P1;durP1;ratioP1;P2;durP2;ratioP2
38787;SDS011;24536;45.488;12.238;2023-09-30T00:01:08;9.38;;;6.03;;
38787;SDS011;24536;45.488;12.238;2023-09-30T00:03:35;13.85;;;5.90;;
38787;SDS011;24536;45.488;12.238;2023-09-30T00:06:01;10.93;;;5.95;;
38787;SDS011;24536;45.488;12.238;2023-09-30T00:08:27;11.40;;;5.35;;
38787;SDS011;24536;45.488;12.238;2023-09-30T00:10:53;10.70;;;6.60;;
38787;SDS011;24536;45.488;12.238;2023-09-30T00:13:19;10.75;;;5.55;;
38787;SDS011;24536;45.488;12.238;2023-09-30T00:15:45;12.55;;;6.57;;
38787;SDS011;24536;45.488;12.238;2023-09-30T00:18:11;11.77;;;6.32;;
38787;SDS011;24536;45.488;12.238;2023-09-30T00:20:38;8.77;;;6.32;;
38787;SDS011;24536;45.488;12.238;2023-09-30T00:23:04;6.95;;;4.72;;
38787;SDS011;24536;45.488;12.238;2023-09-30T00:25:31;8.32;;;4.63;;
38787;SDS011;24536;45.488;12.238;2023-09-30T00:27:57;10.93;;;5.78;;
38787;SDS011;24536;45.488;12.238;2023-09-30T00:30:23;9.95;;;5.40;;
38787;SDS011;24536;45.488;12.238;2023-09-30T00:32:49;8.18;;;5.35;;
38787;SDS011;24536;45.488;12.238;2023-09-30T00:35:15;8.25;;;5.82;;
38787;SDS011;24536;45.488;12.238;2023-09-30T00:37:41;9.13;;;5.68;;
38787;SDS011;24536;45.488;12.238;2023-09-30T00:40:07;10.50;;;5.90;;
38787;SDS011;24536;45.488;12.238;2023-09-30T00:42:40;17.80;;;6.43;;
38787;SDS011;24536;45.488;12.238;2023-09-30T00:45:06;9.57;;;4.85;;
38787;SDS011;24536;45.488;12.238;2023-09-30T00:47:35;8.77;;;5.70;;
38787;SDS011;24536;45.488;12.238;2023-09-30T00:50:02;9.13;;;5.38;;
38787;SDS011;24536;45.488;12.238;2023-09-30T00:52:30;9.57;;;6.30;;
38787;SDS011;24536;45.488;12.238;2023-09-30T00:54:58;10.10;;;5.80;;
38787;SDS011;24536;45.488;12.238;2023-09-30T00:57:24;9.05;;;5.40;;
38787;SDS011;24536;45.488;12.238;2023-09-30T00:59:50;8.57;;;5.35;;
38787;SDS011;24536;45.488;12.238;2023-09-30T01:02:20;8.90;;;5.60;;
38787;SDS011;24536;45.488;12.238;2023-09-30T01:04:47;7.72;;;5.25;;
38787;SDS011;24536;45.488;12.238;2023-09-30T01:07:13;9.82;;;5.90;;
38787;SDS011;24536;45.488;12.238;2023-09-30T01:09:39;8.68;;;5.90;;
38787;SDS011;24536;45.488;12.238;2023-09-30T01:12:05;12.88;;;6.32;;
38787;SDS011;24536;45.488;12.238;2023-09-30T01:14:33;13.57;;;5.70;;
38787;SDS011;24536;45.488;12.238;2023-09-30T01:17:00;10.93;;;6.32;;
38787;SDS011;24536;45.488;12.238;2023-09-30T01:19:26;8.23;;;5.70;;
38787;SDS011;24536;45.488;12.238;2023-09-30T01:21:58;8.63;;;5.18;;
38787;SDS011;24536;45.488;12.238;2023-09-30T01:24:25;6.60;;;4.72;;
38787;SDS011;24536;45.488;12.238;2023-09-30T01:26:51;7.53;;;5.78;;
38787;SDS011;24536;45.488;12.238;2023-09-30T01:29:18;7.72;;;4.68;;
38787;SDS011;24536;45.488;12.238;2023-09-30T01:31:43;8.70;;;4.90;;
38787;SDS011;24536;45.488;12.238;2023-09-30T01:34:12;6.65;;;4.50;;
38787;SDS011;24536;45.488;12.238;2023-09-30T01:36:40;8.65;;;4.57;;
38787;SDS011;24536;45.488;12.238;2023-09-30T01:39:06;7.65;;;4.57;;
38787;SDS011;24536;45.488;12.238;2023-09-30T01:41:32;5.22;;;3.80;;
38787;SDS011;24536;45.488;12.238;2023-09-30T01:43:58;8.15;;;4.30;;
38787;SDS011;24536;45.488;12.238;2023-09-30T01:46:24;5.97;;;3.90;;
38787;SDS011;24536;45.488;12.238;2023-09-30T01:48:49;6.60;;;4.22;;
38787;SDS011;24536;45.488;12.238;2023-09-30T01:51:15;8.20;;;4.30;;
38787;SDS011;24536;45.488;12.238;2023-09-30T01:53:41;5.90;;;4.07;;
38787;SDS011;24536;45.488;12.238;2023-09-30T01:56:08;7.43;;;4.07;;
38787;SDS011;24536;45.488;12.238;2023-09-30T01:58:33;7.53;;;4.20;;
38787;SDS011;24536;45.488;12.238;2023-09-30T02:01:05;9.23;;;4.40;;
38787;SDS011;24536;45.488;12.238;2023-09-30T02:03:31;6.05;;;3.67;;
38787;SDS011;24536;45.488;12.238;2023-09-30T02:05:57;7.10;;;3.78;;
38787;SDS011;24536;45.488;12.238;2023-09-30T02:08:23;6.88;;;3.65;;
38787;SDS011;24536;45.488;12.238;2023-09-30T02:10:49;5.40;;;3.30;;
38787;SDS011;24536;45.488;12.238;2023-09-30T02:13:18;6.07;;;3.72;;
38787;SDS011;24536;45.488;12.238;2023-09-30T02:15:45;5.53;;;3.42;;
38787;SDS011;24536;45.488;12.238;2023-09-30T02:18:11;7.13;;;3.60;;
38787;SDS011;24536;45.488;12.238;2023-09-30T02:20:37;5.13;;;3.20;;
38787;SDS011;24536;45.488;12.238;2023-09-30T02:23:07;5.15;;;3.30;;
38787;SDS011;24536;45.488;12.238;2023-09-30T02:28:05;4.47;;;3.25;;
38787;SDS011;24536;45.488;12.238;2023-09-30T02:30:31;5.90;;;3.40;;
38787;SDS011;24536;45.488;12.238;2023-09-30T02:32:57;5.35;;;2.80;;
38787;SDS011;24536;45.488;12.238;2023-09-30T02:35:23;5.07;;;2.85;;
38787;SDS011;24536;45.488;12.238;2023-09-30T02:37:49;4.75;;;3.45;;
38787;SDS011;24536;45.488;12.238;2023-09-30T02:40:15;7.18;;;2.78;;
38787;SDS011;24536;45.488;12.238;2023-09-30T02:42:42;7.13;;;2.95;;
38787;SDS011;24536;45.488;12.238;2023-09-30T02:45:08;5.68;;;3.00;;
38787;SDS011;24536;45.488;12.238;2023-09-30T02:47:35;4.82;;;2.67;;
38787;SDS011;24536;45.488;12.238;2023-09-30T02:50:01;7.22;;;2.92;;
38787;SDS011;24536;45.488;12.238;2023-09-30T02:52:29;5.90;;;3.30;;
38787;SDS011;24536;45.488;12.238;2023-09-30T02:54:56;3.80;;;2.72;;
38787;SDS011;24536;45.488;12.238;2023-09-30T02:57:23;3.25;;;2.50;;
38787;SDS011;24536;45.488;12.238;2023-09-30T02:59:49;6.07;;;3.08;;
38787;SDS011;24536;45.488;12.238;2023-09-30T03:02:17;6.13;;;2.78;;
38787;SDS011;24536;45.488;12.238;2023-09-30T03:04:43;5.70;;;3.20;;
38787;SDS011;24536;45.488;12.238;2023-09-30T03:07:10;8.20;;;2.90;;
38787;SDS011;24536;45.488;12.238;2023-09-30T03:09:35;5.40;;;3.50;;
38787;SDS011;24536;45.488;12.238;2023-09-30T03:12:04;7.22;;;2.75;;
38787;SDS011;24536;45.488;12.238;2023-09-30T03:14:31;6.68;;;3.13;;
38787;SDS011;24536;45.488;12.238;2023-09-30T03:16:59;5.82;;;3.22;;
38787;SDS011;24536;45.488;12.238;2023-09-30T03:19:25;5.25;;;3.15;;
38787;SDS011;24536;45.488;12.238;2023-09-30T03:21:51;7.50;;;3.45;;
38787;SDS011;24536;45.488;12.238;2023-09-30T03:24:17;4.55;;;3.00;;
38787;SDS011;24536;45.488;12.238;2023-09-30T03:26:42;6.13;;;3.17;;
38787;SDS011;24536;45.488;12.238;2023-09-30T03:29:09;5.32;;;3.00;;
38787;SDS011;24536;45.488;12.238;2023-09-30T03:31:35;4.75;;;2.78;;
38787;SDS011;24536;45.488;12.238;2023-09-30T03:34:04;6.60;;;3.28;;
38787;SDS011;24536;45.488;12.238;2023-09-30T03:36:31;6.55;;;3.22;;
38787;SDS011;24536;45.488;12.238;2023-09-30T03:38:57;5.35;;;2.83;;
38787;SDS011;24536;45.488;12.238;2023-09-30T03:41:31;4.30;;;2.95;;
38787;SDS011;24536;45.488;12.238;2023-09-30T03:44:02;7.47;;;3.08;;
38787;SDS011;24536;45.488;12.238;2023-09-30T03:46:28;9.05;;;3.33;;
38787;SDS011;24536;45.488;12.238;2023-09-30T03:48:54;5.20;;;2.55;;
38787;SDS011;24536;45.488;12.238;2023-09-30T03:51:20;5.35;;;2.63;;
38787;SDS011;24536;45.488;12.238;2023-09-30T03:53:50;5.80;;;3.10;;
38787;SDS011;24536;45.488;12.238;2023-09-30T03:56:16;5.15;;;3.28;;
38787;SDS011;24536;45.488;12.238;2023-09-30T03:58:43;4.30;;;2.38;;
38787;SDS011;24536;45.488;12.238;2023-09-30T04:01:10;8.55;;;3.25;;
38787;SDS011;24536;45.488;12.238;2023-09-30T04:03:55;3.65;;;2.85;;
38787;SDS011;24536;45.488;12.238;2023-09-30T04:06:21;4.60;;;3.05;;
38787;SDS011;24536;45.488;12.238;2023-09-30T04:08:47;4.85;;;3.30;;
38787;SDS011;24536;45.488;12.238;2023-09-30T04:11:13;4.68;;;3.25;;
38787;SDS011;24536;45.488;12.238;2023-09-30T04:13:43;5.25;;;3.80;;
38787;SDS011;24536;45.488;12.238;2023-09-30T04:16:09;6.97;;;3.70;;
38787;SDS011;24536;45.488;12.238;2023-09-30T04:18:35;7.10;;;4.18;;
38787;SDS011;24536;45.488;12.238;2023-09-30T04:21:01;7.43;;;4.18;;
38787;SDS011;24536;45.488;12.238;2023-09-30T04:23:27;5.35;;;4.05;;
38787;SDS011;24536;45.488;12.238;2023-09-30T04:25:53;8.40;;;4.20;;
38787;SDS011;24536;45.488;12.238;2023-09-30T04:28:19;7.85;;;4.40;;
38787;SDS011;24536;45.488;12.238;2023-09-30T04:30:48;6.93;;;3.80;;
38787;SDS011;24536;45.488;12.238;2023-09-30T04:33:18;5.65;;;3.80;;
38787;SDS011;24536;45.488;12.238;2023-09-30T04:35:45;8.32;;;4.80;;
38787;SDS011;24536;45.488;12.238;2023-09-30T04:38:11;5.15;;;3.72;;
38787;SDS011;24536;45.488;12.238;2023-09-30T04:40:38;6.68;;;4.28;;
38787;SDS011;24536;45.488;12.238;2023-09-30T04:43:04;8.43;;;4.30;;
38787;SDS011;24536;45.488;12.238;2023-09-30T04:45:30;6.97;;;3.78;;
38787;SDS011;24536;45.488;12.238;2023-09-30T04:47:56;7.10;;;3.97;;
38787;SDS011;24536;45.488;12.238;2023-09-30T04:50:22;6.63;;;4.63;;
38787;SDS011;24536;45.488;12.238;2023-09-30T04:52:49;6.03;;;4.00;;
38787;SDS011;24536;45.488;12.238;2023-09-30T04:55:18;7.03;;;3.75;;
38787;SDS011;24536;45.488;12.238;2023-09-30T04:57:47;6.53;;;4.53;;
38787;SDS011;24536;45.488;12.238;2023-09-30T05:00:17;6.57;;;3.55;;
38787;SDS011;24536;45.488;12.238;2023-09-30T05:02:49;7.25;;;3.58;;
38787;SDS011;24536;45.488;12.238;2023-09-30T05:05:16;6.60;;;3.92;;
38787;SDS011;24536;45.488;12.238;2023-09-30T05:07:42;7.45;;;4.20;;
38787;SDS011;24536;45.488;12.238;2023-09-30T05:10:08;7.13;;;3.90;;
38787;SDS011;24536;45.488;12.238;2023-09-30T05:12:38;7.50;;;3.53;;
38787;SDS011;24536;45.488;12.238;2023-09-30T05:15:08;6.20;;;4.18;;
38787;SDS011;24536;45.488;12.238;2023-09-30T05:17:35;5.63;;;4.00;;
38787;SDS011;24536;45.488;12.238;2023-09-30T05:20:01;5.78;;;3.47;;
38787;SDS011;24536;45.488;12.238;2023-09-30T05:22:32;9.98;;;4.10;;
38787;SDS011;24536;45.488;12.238;2023-09-30T05:24:58;6.18;;;4.25;;
38787;SDS011;24536;45.488;12.238;2023-09-30T05:27:25;6.45;;;4.55;;
38787;SDS011;24536;45.488;12.238;2023-09-30T05:29:52;10.00;;;4.15;;
38787;SDS011;24536;45.488;12.238;2023-09-30T05:32:18;6.80;;;4.47;;
38787;SDS011;24536;45.488;12.238;2023-09-30T05:34:44;6.72;;;4.35;;
38787;SDS011;24536;45.488;12.238;2023-09-30T05:37:09;10.75;;;4.53;;
38787;SDS011;24536;45.488;12.238;2023-09-30T05:39:37;5.97;;;4.30;;
38787;SDS011;24536;45.488;12.238;2023-09-30T05:42:02;6.65;;;4.68;;
38787;SDS011;24536;45.488;12.238;2023-09-30T05:44:28;5.82;;;4.22;;
38787;SDS011;24536;45.488;12.238;2023-09-30T05:46:54;7.82;;;4.85;;
38787;SDS011;24536;45.488;12.238;2023-09-30T05:49:20;9.93;;;4.70;;
38787;SDS011;24536;45.488;12.238;2023-09-30T05:51:46;7.05;;;4.72;;
38787;SDS011;24536;45.488;12.238;2023-09-30T05:54:12;6.20;;;4.78;;
38787;SDS011;24536;45.488;12.238;2023-09-30T05:56:38;7.13;;;5.15;;
38787;SDS011;24536;45.488;12.238;2023-09-30T05:59:05;9.20;;;4.80;;
38787;SDS011;24536;45.488;12.238;2023-09-30T06:01:31;8.40;;;5.30;;
38787;SDS011;24536;45.488;12.238;2023-09-30T06:03:58;8.30;;;5.03;;
38787;SDS011;24536;45.488;12.238;2023-09-30T06:06:25;9.95;;;5.35;;
38787;SDS011;24536;45.488;12.238;2023-09-30T06:08:52;9.13;;;5.22;;
38787;SDS011;24536;45.488;12.238;2023-09-30T06:13:47;9.20;;;5.93;;
38787;SDS011;24536;45.488;12.238;2023-09-30T06:16:13;7.97;;;5.70;;
38787;SDS011;24536;45.488;12.238;2023-09-30T06:18:41;6.72;;;5.45;;
38787;SDS011;24536;45.488;12.238;2023-09-30T06:21:16;11.02;;;5.78;;
38787;SDS011;24536;45.488;12.238;2023-09-30T06:23:50;5.60;;;5.00;;
38787;SDS011;24536;45.488;12.238;2023-09-30T06:26:18;8.95;;;5.72;;
38787;SDS011;24536;45.488;12.238;2023-09-30T06:28:46;10.32;;;5.57;;
38787;SDS011;24536;45.488;12.238;2023-09-30T06:31:12;7.78;;;5.45;;
38787;SDS011;24536;45.488;12.238;2023-09-30T06:33:38;7.38;;;5.55;;
38787;SDS011;24536;45.488;12.238;2023-09-30T06:36:08;5.97;;;5.15;;
38787;SDS011;24536;45.488;12.238;2023-09-30T06:38:35;7.90;;;5.28;;
38787;SDS011;24536;45.488;12.238;2023-09-30T06:41:02;8.52;;;5.10;;
38787;SDS011;24536;45.488;12.238;2023-09-30T06:43:27;6.15;;;5.35;;
38787;SDS011;24536;45.488;12.238;2023-09-30T06:45:53;8.85;;;5.63;;
38787;SDS011;24536;45.488;12.238;2023-09-30T06:48:19;7.53;;;5.68;;
38787;SDS011;24536;45.488;12.238;2023-09-30T06:50:46;6.75;;;4.97;;
38787;SDS011;24536;45.488;12.238;2023-09-30T06:53:16;10.35;;;6.07;;
38787;SDS011;24536;45.488;12.238;2023-09-30T06:55:43;8.45;;;5.38;;
38787;SDS011;24536;45.488;12.238;2023-09-30T06:58:10;7.18;;;5.10;;
38787;SDS011;24536;45.488;12.238;2023-09-30T07:00:37;7.63;;;5.00;;
38787;SDS011;24536;45.488;12.238;2023-09-30T07:03:03;8.43;;;5.45;;
38787;SDS011;24536;45.488;12.238;2023-09-30T07:05:29;8.52;;;5.18;;
38787;SDS011;24536;45.488;12.238;2023-09-30T07:07:55;8.85;;;5.15;;
38787;SDS011;24536;45.488;12.238;2023-09-30T07:10:21;7.90;;;4.18;;
38787;SDS011;24536;45.488;12.238;2023-09-30T07:12:47;7.47;;;3.72;;
38787;SDS011;24536;45.488;12.238;2023-09-30T07:15:12;7.60;;;4.55;;
38787;SDS011;24536;45.488;12.238;2023-09-30T07:17:39;5.78;;;3.75;;
38787;SDS011;24536;45.488;12.238;2023-09-30T07:20:05;6.13;;;4.10;;
38787;SDS011;24536;45.488;12.238;2023-09-30T07:22:35;6.45;;;3.25;;
38787;SDS011;24536;45.488;12.238;2023-09-30T07:25:00;6.50;;;2.80;;
38787;SDS011;24536;45.488;12.238;2023-09-30T07:27:27;3.30;;;2.90;;
38787;SDS011;24536;45.488;12.238;2023-09-30T07:29:52;6.10;;;3.75;;
38787;SDS011;24536;45.488;12.238;2023-09-30T07:32:18;5.43;;;3.40;;
38787;SDS011;24536;45.488;12.238;2023-09-30T07:34:46;6.78;;;3.20;;
38787;SDS011;24536;45.488;12.238;2023-09-30T07:37:12;5.10;;;3.40;;
38787;SDS011;24536;45.488;12.238;2023-09-30T07:39:39;3.53;;;2.75;;
38787;SDS011;24536;45.488;12.238;2023-09-30T07:42:05;7.72;;;3.05;;
38787;SDS011;24536;45.488;12.238;2023-09-30T07:44:33;6.22;;;3.33;;
38787;SDS011;24536;45.488;12.238;2023-09-30T07:47:01;9.65;;;3.25;;
38787;SDS011;24536;45.488;12.238;2023-09-30T07:49:28;7.50;;;2.80;;
38787;SDS011;24536;45.488;12.238;2023-09-30T07:51:54;5.25;;;2.80;;
38787;SDS011;24536;45.488;12.238;2023-09-30T07:54:20;6.88;;;3.60;;
38787;SDS011;24536;45.488;12.238;2023-09-30T07:56:46;5.80;;;2.67;;
38787;SDS011;24536;45.488;12.238;2023-09-30T07:59:11;12.52;;;2.92;;
38787;SDS011;24536;45.488;12.238;2023-09-30T08:01:38;3.70;;;2.50;;
38787;SDS011;24536;45.488;12.238;2023-09-30T08:04:04;13.45;;;3.28;;
38787;SDS011;24536;45.488;12.238;2023-09-30T08:06:39;5.32;;;2.55;;
38787;SDS011;24536;45.488;12.238;2023-09-30T08:09:05;6.30;;;2.60;;
38787;SDS011;24536;45.488;12.238;2023-09-30T08:11:36;5.82;;;3.70;;
38787;SDS011;24536;45.488;12.238;2023-09-30T08:14:03;5.00;;;2.63;;
38787;SDS011;24536;45.488;12.238;2023-09-30T08:16:32;6.43;;;3.00;;
38787;SDS011;24536;45.488;12.238;2023-09-30T08:18:58;3.35;;;2.67;;
38787;SDS011;24536;45.488;12.238;2023-09-30T08:21:24;6.72;;;2.90;;
38787;SDS011;24536;45.488;12.238;2023-09-30T08:23:50;5.78;;;2.80;;
38787;SDS011;24536;45.488;12.238;2023-09-30T08:26:15;4.88;;;2.88;;
38787;SDS011;24536;45.488;12.238;2023-09-30T08:28:41;6.20;;;3.22;;
38787;SDS011;24536;45.488;12.238;2023-09-30T08:31:07;4.10;;;3.10;;
38787;SDS011;24536;45.488;12.238;2023-09-30T08:33:34;12.07;;;3.30;;
38787;SDS011;24536;45.488;12.238;2023-09-30T08:36:05;3.78;;;2.72;;
38787;SDS011;24536;45.488;12.238;2023-09-30T08:38:36;5.63;;;2.80;;
38787;SDS011;24536;45.488;12.238;2023-09-30T08:41:03;3.85;;;2.50;;
38787;SDS011;24536;45.488;12.238;2023-09-30T08:43:30;4.55;;;2.78;;
38787;SDS011;24536;45.488;12.238;2023-09-30T08:45:59;6.22;;;3.00;;
38787;SDS011;24536;45.488;12.238;2023-09-30T08:48:27;7.40;;;2.95;;
38787;SDS011;24536;45.488;12.238;2023-09-30T08:50:53;5.93;;;2.55;;
38787;SDS011;24536;45.488;12.238;2023-09-30T08:53:19;7.72;;;3.47;;
38787;SDS011;24536;45.488;12.238;2023-09-30T08:55:46;6.57;;;2.80;;
38787;SDS011;24536;45.488;12.238;2023-09-30T08:58:12;4.72;;;2.55;;
38787;SDS011;24536;45.488;12.238;2023-09-30T09:00:38;3.85;;;2.83;;
38787;SDS011;24536;45.488;12.238;2023-09-30T09:03:06;7.82;;;2.90;;
38787;SDS011;24536;45.488;12.238;2023-09-30T09:05:33;7.30;;;2.70;;
38787;SDS011;24536;45.488;12.238;2023-09-30T09:07:58;7.38;;;3.45;;
38787;SDS011;24536;45.488;12.238;2023-09-30T09:10:24;4.00;;;2.90;;
38787;SDS011;24536;45.488;12.238;2023-09-30T09:12:56;4.60;;;3.25;;
38787;SDS011;24536;45.488;12.238;2023-09-30T09:15:26;5.05;;;3.20;;
38787;SDS011;24536;45.488;12.238;2023-09-30T09:17:56;7.20;;;2.85;;
38787;SDS011;24536;45.488;12.238;2023-09-30T09:20:22;6.00;;;2.70;;
38787;SDS011;24536;45.488;12.238;2023-09-30T09:22:51;4.93;;;2.90;;
38787;SDS011;24536;45.488;12.238;2023-09-30T09:25:19;6.78;;;3.13;;
38787;SDS011;24536;45.488;12.238;2023-09-30T09:27:48;5.30;;;2.80;;
38787;SDS011;24536;45.488;12.238;2023-09-30T09:32:54;3.58;;;2.80;;
38787;SDS011;24536;45.488;12.238;2023-09-30T09:35:30;3.75;;;2.88;;
38787;SDS011;24536;45.488;12.238;2023-09-30T09:37:58;4.78;;;2.83;;
38787;SDS011;24536;45.488;12.238;2023-09-30T09:40:30;3.38;;;2.70;;
38787;SDS011;24536;45.488;12.238;2023-09-30T09:43:00;4.68;;;3.28;;
38787;SDS011;24536;45.488;12.238;2023-09-30T09:45:29;7.90;;;2.80;;
38787;SDS011;24536;45.488;12.238;2023-09-30T09:47:59;5.60;;;2.60;;
38787;SDS011;24536;45.488;12.238;2023-09-30T09:50:34;5.45;;;2.92;;
38787;SDS011;24536;45.488;12.238;2023-09-30T09:53:03;5.15;;;2.97;;
38787;SDS011;24536;45.488;12.238;2023-09-30T09:55:30;9.20;;;2.92;;
38787;SDS011;24536;45.488;12.238;2023-09-30T09:57:55;7.57;;;3.17;;
38787;SDS011;24536;45.488;12.238;2023-09-30T10:00:25;4.82;;;2.70;;
38787;SDS011;24536;45.488;12.238;2023-09-30T10:02:52;7.75;;;2.60;;
38787;SDS011;24536;45.488;12.238;2023-09-30T10:05:19;3.35;;;2.88;;
38787;SDS011;24536;45.488;12.238;2023-09-30T10:07:53;6.78;;;3.42;;
38787;SDS011;24536;45.488;12.238;2023-09-30T10:10:25;5.90;;;2.90;;
38787;SDS011;24536;45.488;12.238;2023-09-30T10:12:53;6.57;;;3.40;;
38787;SDS011;24536;45.488;12.238;2023-09-30T10:18:00;5.88;;;3.83;;
38787;SDS011;24536;45.488;12.238;2023-09-30T10:20:37;6.20;;;3.85;;
38787;SDS011;24536;45.488;12.238;2023-09-30T10:25:48;5.15;;;3.60;;
38787;SDS011;24536;45.488;12.238;2023-09-30T10:31:15;6.13;;;2.85;;
38787;SDS011;24536;45.488;12.238;2023-09-30T10:36:32;6.63;;;3.22;;
38787;SDS011;24536;45.488;12.238;2023-09-30T10:38:59;8.02;;;3.10;;
38787;SDS011;24536;45.488;12.238;2023-09-30T10:46:54;4.18;;;2.90;;
38787;SDS011;24536;45.488;12.238;2023-09-30T10:51:55;6.88;;;3.03;;
38787;SDS011;24536;45.488;12.238;2023-09-30T10:54:23;5.40;;;3.20;;
38787;SDS011;24536;45.488;12.238;2023-09-30T10:56:50;10.35;;;3.30;;
38787;SDS011;24536;45.488;12.238;2023-09-30T10:59:20;5.65;;;3.00;;
38787;SDS011;24536;45.488;12.238;2023-09-30T11:01:50;5.65;;;2.70;;
38787;SDS011;24536;45.488;12.238;2023-09-30T11:04:20;6.40;;;3.63;;
38787;SDS011;24536;45.488;12.238;2023-09-30T11:06:46;5.45;;;3.38;;
38787;SDS011;24536;45.488;12.238;2023-09-30T11:09:19;5.30;;;3.80;;
38787;SDS011;24536;45.488;12.238;2023-09-30T11:11:47;6.35;;;3.40;;
38787;SDS011;24536;45.488;12.238;2023-09-30T11:16:42;4.30;;;3.00;;
38787;SDS011;24536;45.488;12.238;2023-09-30T11:19:08;5.80;;;3.67;;
38787;SDS011;24536;45.488;12.238;2023-09-30T11:21:34;6.35;;;3.13;;
38787;SDS011;24536;45.488;12.238;2023-09-30T11:24:00;6.22;;;3.45;;
38787;SDS011;24536;45.488;12.238;2023-09-30T11:26:30;4.47;;;3.47;;
38787;SDS011;24536;45.488;12.238;2023-09-30T11:29:32;7.20;;;3.55;;
38787;SDS011;24536;45.488;12.238;2023-09-30T11:31:51;5.35;;;3.17;;
38787;SDS011;24536;45.488;12.238;2023-09-30T11:34:17;5.00;;;3.22;;
38787;SDS011;24536;45.488;12.238;2023-09-30T11:36:50;6.40;;;3.53;;
38787;SDS011;24536;45.488;12.238;2023-09-30T11:39:23;7.65;;;3.65;;
38787;SDS011;24536;45.488;12.238;2023-09-30T11:41:54;5.03;;;3.40;;
38787;SDS011;24536;45.488;12.238;2023-09-30T11:44:22;5.93;;;2.85;;
38787;SDS011;24536;45.488;12.238;2023-09-30T11:49:38;7.60;;;3.88;;
38787;SDS011;24536;45.488;12.238;2023-09-30T11:54:38;6.00;;;3.33;;
38787;SDS011;24536;45.488;12.238;2023-09-30T11:57:13;5.72;;;3.55;;
38787;SDS011;24536;45.488;12.238;2023-09-30T11:59:41;7.13;;;3.47;;
38787;SDS011;24536;45.488;12.238;2023-09-30T12:02:09;8.32;;;3.58;;
38787;SDS011;24536;45.488;12.238;2023-09-30T12:04:36;10.82;;;3.38;;
38787;SDS011;24536;45.488;12.238;2023-09-30T12:07:02;5.68;;;3.90;;
38787;SDS011;24536;45.488;12.238;2023-09-30T12:09:28;15.18;;;3.65;;
38787;SDS011;24536;45.488;12.238;2023-09-30T12:11:55;4.57;;;3.35;;
38787;SDS011;24536;45.488;12.238;2023-09-30T12:14:22;4.97;;;3.25;;
38787;SDS011;24536;45.488;12.238;2023-09-30T12:16:49;5.75;;;3.60;;
38787;SDS011;24536;45.488;12.238;2023-09-30T12:19:19;6.03;;;3.85;;
38787;SDS011;24536;45.488;12.238;2023-09-30T12:24:13;7.13;;;3.90;;
38787;SDS011;24536;45.488;12.238;2023-09-30T12:26:45;7.83;;;3.40;;
38787;SDS011;24536;45.488;12.238;2023-09-30T12:29:16;7.88;;;3.65;;
38787;SDS011;24536;45.488;12.238;2023-09-30T12:31:46;6.65;;;3.72;;
38787;SDS011;24536;45.488;12.238;2023-09-30T12:34:12;5.45;;;3.28;;
38787;SDS011;24536;45.488;12.238;2023-09-30T12:36:40;6.50;;;3.83;;
38787;SDS011;24536;45.488;12.238;2023-09-30T12:39:07;8.45;;;3.88;;
38787;SDS011;24536;45.488;12.238;2023-09-30T12:44:05;6.40;;;3.83;;
38787;SDS011;24536;45.488;12.238;2023-09-30T12:46:31;7.25;;;3.85;;
38787;SDS011;24536;45.488;12.238;2023-09-30T12:49:00;6.07;;;3.28;;
38787;SDS011;24536;45.488;12.238;2023-09-30T12:51:27;8.77;;;3.75;;
38787;SDS011;24536;45.488;12.238;2023-09-30T12:53:53;6.82;;;4.47;;
38787;SDS011;24536;45.488;12.238;2023-09-30T12:56:19;6.53;;;3.58;;
38787;SDS011;24536;45.488;12.238;2023-09-30T12:58:44;6.45;;;3.60;;
38787;SDS011;24536;45.488;12.238;2023-09-30T13:01:10;9.18;;;3.50;;
38787;SDS011;24536;45.488;12.238;2023-09-30T13:03:36;10.02;;;3.95;;
38787;SDS011;24536;45.488;12.238;2023-09-30T13:06:02;5.50;;;3.95;;
38787;SDS011;24536;45.488;12.238;2023-09-30T13:08:28;7.93;;;3.47;;
38787;SDS011;24536;45.488;12.238;2023-09-30T13:10:59;8.13;;;3.38;;
38787;SDS011;24536;45.488;12.238;2023-09-30T13:13:31;7.50;;;3.67;;
38787;SDS011;24536;45.488;12.238;2023-09-30T13:16:00;7.47;;;3.65;;
38787;SDS011;24536;45.488;12.238;2023-09-30T13:18:26;9.90;;;3.70;;
38787;SDS011;24536;45.488;12.238;2023-09-30T13:20:52;8.50;;;4.03;;
38787;SDS011;24536;45.488;12.238;2023-09-30T13:23:18;8.75;;;3.80;;
38787;SDS011;24536;45.488;12.238;2023-09-30T13:25:44;10.02;;;4.18;;
38787;SDS011;24536;45.488;12.238;2023-09-30T13:28:10;6.32;;;3.17;;
38787;SDS011;24536;45.488;12.238;2023-09-30T13:30:37;5.32;;;3.80;;
38787;SDS011;24536;45.488;12.238;2023-09-30T13:33:03;7.60;;;3.65;;
38787;SDS011;24536;45.488;12.238;2023-09-30T13:35:29;10.57;;;3.58;;
38787;SDS011;24536;45.488;12.238;2023-09-30T13:37:55;7.97;;;3.65;;
38787;SDS011;24536;45.488;12.238;2023-09-30T13:40:20;6.68;;;4.03;;
38787;SDS011;24536;45.488;12.238;2023-09-30T13:42:46;7.88;;;3.63;;
38787;SDS011;24536;45.488;12.238;2023-09-30T13:45:12;6.03;;;4.00;;
38787;SDS011;24536;45.488;12.238;2023-09-30T13:47:38;5.35;;;3.72;;
38787;SDS011;24536;45.488;12.238;2023-09-30T13:50:04;9.68;;;3.55;;
38787;SDS011;24536;45.488;12.238;2023-09-30T13:52:32;8.63;;;3.45;;
38787;SDS011;24536;45.488;12.238;2023-09-30T13:54:59;8.45;;;3.75;;
38787;SDS011;24536;45.488;12.238;2023-09-30T13:57:25;7.18;;;3.38;;
38787;SDS011;24536;45.488;12.238;2023-09-30T13:59:51;7.93;;;3.40;;
38787;SDS011;24536;45.488;12.238;2023-09-30T14:02:16;6.40;;;3.03;;
38787;SDS011;24536;45.488;12.238;2023-09-30T14:04:42;7.80;;;3.58;;
38787;SDS011;24536;45.488;12.238;2023-09-30T14:07:09;7.72;;;3.78;;
38787;SDS011;24536;45.488;12.238;2023-09-30T14:09:34;7.13;;;3.30;;
38787;SDS011;24536;45.488;12.238;2023-09-30T14:12:00;6.93;;;3.70;;
38787;SDS011;24536;45.488;12.238;2023-09-30T14:14:26;4.03;;;2.83;;
38787;SDS011;24536;45.488;12.238;2023-09-30T14:16:52;4.78;;;2.95;;
38787;SDS011;24536;45.488;12.238;2023-09-30T14:19:17;8.00;;;3.20;;
38787;SDS011;24536;45.488;12.238;2023-09-30T14:21:43;5.60;;;2.90;;
38787;SDS011;24536;45.488;12.238;2023-09-30T14:24:10;4.97;;;2.90;;
38787;SDS011;24536;45.488;12.238;2023-09-30T14:26:36;5.88;;;2.95;;
38787;SDS011;24536;45.488;12.238;2023-09-30T14:29:02;5.45;;;3.50;;
38787;SDS011;24536;45.488;12.238;2023-09-30T14:31:32;10.13;;;3.55;;
38787;SDS011;24536;45.488;12.238;2023-09-30T14:33:59;4.82;;;3.50;;
38787;SDS011;24536;45.488;12.238;2023-09-30T14:36:26;6.55;;;2.90;;
38787;SDS011;24536;45.488;12.238;2023-09-30T14:38:53;4.80;;;3.60;;
38787;SDS011;24536;45.488;12.238;2023-09-30T14:41:18;5.07;;;3.58;;
38787;SDS011;24536;45.488;12.238;2023-09-30T14:43:44;6.57;;;3.22;;
38787;SDS011;24536;45.488;12.238;2023-09-30T14:46:10;6.35;;;3.22;;
38787;SDS011;24536;45.488;12.238;2023-09-30T14:48:40;4.63;;;2.88;;
38787;SDS011;24536;45.488;12.238;2023-09-30T14:51:07;9.05;;;4.03;;
38787;SDS011;24536;45.488;12.238;2023-09-30T14:53:33;6.72;;;3.38;;
38787;SDS011;24536;45.488;12.238;2023-09-30T14:55:59;5.05;;;3.42;;
38787;SDS011;24536;45.488;12.238;2023-09-30T14:58:24;10.13;;;3.45;;
38787;SDS011;24536;45.488;12.238;2023-09-30T15:00:50;4.28;;;3.03;;
38787;SDS011;24536;45.488;12.238;2023-09-30T15:03:16;6.20;;;3.28;;
38787;SDS011;24536;45.488;12.238;2023-09-30T15:05:41;7.38;;;3.33;;
38787;SDS011;24536;45.488;12.238;2023-09-30T15:08:07;4.45;;;3.05;;
38787;SDS011;24536;45.488;12.238;2023-09-30T15:10:35;8.15;;;3.47;;
38787;SDS011;24536;45.488;12.238;2023-09-30T15:13:01;3.55;;;2.35;;